Maquoketa, Iowa
Current Conditions -  °F | °C
As of 9:57 AM on Thursday 27 Nov 2014 (Local Time) from KDBQ Reporting Station
Clear Clear  
Wind Chill:   Ceiling: Unl
Heat Index: 17°   Visibility: 10mi
Dew Point: 11°   Wind: 14mph
Humidity: 77%   Direction: 330°NNW
Pressure: 30.4"   Gusts: NA
Location:  42.07°N, 90.66°W
Report Text: KDBQ 271557Z 33012KT 10SM CLR M08/M12 A3040 RMK AO2 T10831117
Loading
Personal Weather Stations






























Interactive Weather Map New forecast layout! Learn more

10-Day Weather Forecast

Advertisements
Track Severe Weather on mobile